Time;durP1;ratioP1;P1;durP2;ratioP2;P2;SDS_P1;SDS_P2;PMS_P1;PMS_P2;Temp;Humidity;BMP_temperature;BMP_pressure;BME280_temperature;BME280_humidity;BME280_pressure;Samples;Min_cycle;Max_cycle;Signal;HPM_P1;HPM_P2
2022/03/06 00:01:39;;;;;;;12.03;6.27;;;1.00;99.90;;;;;;4437824;32;20163;-73
2022/03/06 00:04:06;;;;;;;9.70;6.10;;;1.10;99.90;;;;;;4438044;32;20178;-74
2022/03/06 00:06:33;;;;;;;10.23;6.17;;;1.00;99.90;;;;;;4438771;32;20174;-74
2022/03/06 00:09:00;;;;;;;8.93;5.90;;;1.00;99.90;;;;;;4437543;32;20193;-74
2022/03/06 00:11:27;;;;;;;9.43;5.70;;;1.00;99.90;;;;;;4437885;32;20174;-74
2022/03/06 00:13:54;;;;;;;9.87;5.90;;;1.00;99.90;;;;;;4437764;32;20420;-74
2022/03/06 00:16:21;;;;;;;10.53;5.97;;;1.00;99.90;;;;;;4438007;32;20242;-74
2022/03/06 00:18:48;;;;;;;7.77;5.53;;;1.00;99.90;;;;;;4438377;32;20211;-74
2022/03/06 00:21:15;;;;;;;9.03;5.77;;;1.00;99.90;;;;;;4438126;32;20201;-74
2022/03/06 00:23:42;;;;;;;9.83;5.90;;;1.00;99.90;;;;;;4437857;32;20225;-74
2022/03/06 00:26:09;;;;;;;9.33;6.10;;;1.00;99.90;;;;;;4439106;32;20515;-74
2022/03/06 00:28:36;;;;;;;11.53;6.10;;;1.00;99.90;;;;;;4440004;32;20138;-74
2022/03/06 00:31:03;;;;;;;8.87;5.90;;;1.00;99.90;;;;;;4439431;32;20376;-74
2022/03/06 00:33:31;;;;;;;9.83;5.70;;;1.00;99.90;;;;;;4437624;32;20512;-74
2022/03/06 00:35:58;;;;;;;9.17;5.50;;;0.90;99.70;;;;;;4437603;32;20174;-73
2022/03/06 00:38:25;;;;;;;10.27;5.90;;;0.90;99.10;;;;;;4437359;32;20205;-73
2022/03/06 00:40:52;;;;;;;8.67;5.40;;;0.90;99.30;;;;;;4437349;32;20217;-74
2022/03/06 00:43:19;;;;;;;8.43;5.40;;;1.00;99.90;;;;;;4438837;32;20182;-74
2022/03/06 00:45:46;;;;;;;8.50;5.27;;;1.00;99.90;;;;;;4438985;32;20183;-74
2022/03/06 00:48:13;;;;;;;8.27;5.80;;;1.00;99.00;;;;;;4440540;32;20208;-74
2022/03/06 00:50:40;;;;;;;8.03;5.57;;;1.00;99.60;;;;;;4442436;32;20194;-73
2022/03/06 00:53:08;;;;;;;11.70;5.57;;;1.10;99.30;;;;;;4440538;32;20235;-73
2022/03/06 00:55:35;;;;;;;9.07;5.50;;;1.10;99.50;;;;;;4441932;32;20264;-73
2022/03/06 00:58:05;;;;;;;8.27;5.20;;;1.10;98.60;;;;;;4441331;32;20224;-74
2022/03/06 01:00:39;;;;;;;9.03;6.00;;;1.20;98.20;;;;;;4440582;32;20247;-73
2022/03/06 01:03:13;;;;;;;6.93;4.93;;;1.20;98.00;;;;;;4441308;32;20192;-73
2022/03/06 01:05:41;;;;;;;9.23;5.67;;;1.10;97.10;;;;;;4441896;32;20166;-74
2022/03/06 01:08:09;;;;;;;7.70;5.30;;;1.00;96.80;;;;;;4440229;32;20216;-74
2022/03/06 01:10:38;;;;;;;7.80;5.33;;;1.00;97.30;;;;;;4441869;32;20139;-74
2022/03/06 01:13:07;;;;;;;7.93;5.63;;;0.90;97.30;;;;;;4442279;32;20500;-73
2022/03/06 01:15:34;;;;;;;8.17;5.90;;;0.90;97.50;;;;;;4442131;32;20186;-74
2022/03/06 01:18:01;;;;;;;10.37;5.70;;;0.80;97.00;;;;;;4440487;32;20174;-74
2022/03/06 01:20:28;;;;;;;8.90;5.70;;;0.60;97.90;;;;;;4440916;32;20170;-74
2022/03/06 01:22:56;;;;;;;10.17;5.77;;;0.70;98.30;;;;;;4444288;32;20162;-74
2022/03/06 01:25:22;;;;;;;8.37;5.60;;;0.70;98.40;;;;;;4442731;32;20205;-74
2022/03/06 01:27:50;;;;;;;9.50;5.80;;;0.80;98.70;;;;;;4458004;32;20273;-74
2022/03/06 01:30:21;;;;;;;13.03;6.20;;;0.80;99.60;;;;;;4443878;32;20233;-74
2022/03/06 01:32:49;;;;;;;8.97;5.90;;;0.90;99.90;;;;;;4442580;32;20170;-74
2022/03/06 01:35:17;;;;;;;8.97;6.00;;;0.90;99.90;;;;;;4442885;32;20170;-74
2022/03/06 01:37:44;;;;;;;10.43;6.43;;;0.90;98.70;;;;;;4441943;32;20234;-74
2022/03/06 01:40:13;;;;;;;9.87;6.17;;;0.90;99.50;;;;;;4441138;32;20142;-74
2022/03/06 01:42:44;;;;;;;9.27;6.07;;;1.00;99.40;;;;;;4429416;32;20208;-74
2022/03/06 01:45:12;;;;;;;8.87;5.70;;;1.00;98.00;;;;;;4427094;32;20196;-73
2022/03/06 01:47:45;;;;;;;8.53;5.70;;;0.80;97.30;;;;;;4441282;32;20134;-73
2022/03/06 01:50:22;;;;;;;8.60;5.87;;;0.90;97.30;;;;;;4427678;32;20182;-74
2022/03/06 01:52:52;;;;;;;8.07;5.67;;;0.90;98.50;;;;;;4441789;32;20386;-74
2022/03/06 01:55:20;;;;;;;8.93;5.80;;;0.90;97.90;;;;;;4428231;32;20213;-74
2022/03/06 01:57:47;;;;;;;8.37;5.37;;;1.00;97.50;;;;;;4426850;32;20218;-74
2022/03/06 02:00:20;;;;;;;7.53;5.30;;;1.00;97.60;;;;;;4441223;32;20151;-74
2022/03/06 02:02:48;;;;;;;9.67;5.80;;;1.00;97.60;;;;;;4427620;32;20216;-74
2022/03/06 02:05:15;;;;;;;7.80;5.60;;;1.00;98.50;;;;;;4427005;32;20174;-74
2022/03/06 02:07:42;;;;;;;8.37;5.70;;;1.00;97.70;;;;;;4428035;32;20205;-73
2022/03/06 02:10:10;;;;;;;9.20;5.60;;;1.00;98.70;;;;;;4441297;32;20218;-74
2022/03/06 02:12:37;;;;;;;9.37;6.30;;;1.00;98.00;;;;;;4427917;32;20266;-74
2022/03/06 02:15:07;;;;;;;9.10;6.07;;;1.00;96.50;;;;;;4426733;32;20186;-74
2022/03/06 02:17:37;;;;;;;9.17;6.10;;;1.00;97.70;;;;;;4433083;32;20209;-74
2022/03/06 02:20:10;;;;;;;9.50;6.30;;;1.00;97.80;;;;;;4433794;32;20179;-74
2022/03/06 02:22:40;;;;;;;11.00;6.27;;;1.00;98.30;;;;;;4439603;32;20146;-74
2022/03/06 02:25:16;;;;;;;10.03;6.60;;;1.00;98.30;;;;;;4426763;32;20465;-75
2022/03/06 02:27:43;;;;;;;9.83;6.47;;;0.90;97.90;;;;;;4427747;32;20208;-74
2022/03/06 02:30:13;;;;;;;10.77;6.20;;;0.90;97.90;;;;;;4426766;32;20179;-74
2022/03/06 02:32:43;;;;;;;8.80;6.27;;;0.90;98.60;;;;;;4440884;32;20176;-75
2022/03/06 02:35:10;;;;;;;9.87;6.40;;;0.80;98.10;;;;;;4441745;32;20546;-74
2022/03/06 02:37:37;;;;;;;10.43;6.43;;;0.70;98.90;;;;;;4426537;32;20177;-74
2022/03/06 02:40:09;;;;;;;11.20;6.60;;;0.70;99.60;;;;;;4440930;32;20207;-74
2022/03/06 02:42:39;;;;;;;9.60;6.27;;;0.80;99.90;;;;;;4428096;32;20243;-74
2022/03/06 02:45:10;;;;;;;9.93;5.90;;;0.80;99.20;;;;;;4426509;32;20194;-74
2022/03/06 02:47:37;;;;;;;9.50;6.07;;;0.60;98.10;;;;;;4426573;32;20177;-74
2022/03/06 02:50:06;;;;;;;9.17;6.13;;;0.70;98.30;;;;;;4427217;32;20171;-74
2022/03/06 02:52:33;;;;;;;10.43;6.30;;;0.70;99.40;;;;;;4427552;32;20543;-74
2022/03/06 02:55:00;;;;;;;8.73;5.73;;;0.70;99.70;;;;;;4426546;32;20178;-74
2022/03/06 02:57:27;;;;;;;9.17;6.20;;;0.70;99.90;;;;;;4426404;32;20428;-74
2022/03/06 02:59:55;;;;;;;9.30;5.80;;;0.70;99.20;;;;;;4440984;32;20135;-74
2022/03/06 03:02:21;;;;;;;8.33;5.77;;;0.70;99.20;;;;;;4426941;32;20189;-74
2022/03/06 03:04:48;;;;;;;8.20;5.63;;;0.70;99.20;;;;;;4427113;32;20513;-74
2022/03/06 03:07:16;;;;;;;7.37;5.10;;;0.70;98.60;;;;;;4426493;32;20192;-74
2022/03/06 03:09:43;;;;;;;8.47;5.43;;;0.60;97.90;;;;;;4425695;32;20213;-74
2022/03/06 03:12:10;;;;;;;8.90;5.63;;;0.50;97.40;;;;;;4441049;32;20161;-73
2022/03/06 03:14:37;;;;;;;8.90;5.67;;;0.50;97.80;;;;;;4441460;32;20188;-74
2022/03/06 03:17:05;;;;;;;8.47;5.43;;;0.60;98.80;;;;;;4427276;32;20178;-74
2022/03/06 03:19:32;;;;;;;9.17;6.20;;;0.60;99.50;;;;;;4427789;32;20408;-74
2022/03/06 03:21:59;;;;;;;8.67;5.80;;;0.60;98.60;;;;;;4426741;32;20166;-74
2022/03/06 03:24:27;;;;;;;11.47;5.50;;;0.50;99.00;;;;;;4425639;32;20175;-74
2022/03/06 03:26:54;;;;;;;7.90;5.03;;;0.50;98.50;;;;;;4426035;32;20566;-75
2022/03/06 03:29:21;;;;;;;9.00;5.20;;;0.60;98.90;;;;;;4426726;32;20520;-74
2022/03/06 03:31:48;;;;;;;7.13;4.90;;;0.60;99.40;;;;;;4426679;32;20182;-74
2022/03/06 03:34:15;;;;;;;9.17;5.53;;;0.60;99.60;;;;;;4427699;32;20193;-74
2022/03/06 03:36:43;;;;;;;8.30;5.63;;;0.60;99.20;;;;;;4425674;32;20224;-74
2022/03/06 03:39:10;;;;;;;7.60;5.30;;;0.60;98.50;;;;;;4440251;32;20138;-74
2022/03/06 03:41:37;;;;;;;8.87;5.50;;;0.50;97.80;;;;;;4440388;32;20172;-74
2022/03/06 03:44:05;;;;;;;8.53;5.40;;;0.40;97.00;;;;;;4426420;32;20211;-74
2022/03/06 03:46:32;;;;;;;9.70;5.30;;;0.30;95.90;;;;;;4426778;32;20254;-74
2022/03/06 03:48:59;;;;;;;8.40;5.17;;;0.30;97.70;;;;;;4426421;32;20175;-74
2022/03/06 03:51:26;;;;;;;7.80;5.20;;;0.30;99.00;;;;;;4440101;32;20142;-74
2022/03/06 03:53:53;;;;;;;9.90;5.50;;;0.40;98.20;;;;;;4426056;32;20213;-74
2022/03/06 03:56:21;;;;;;;6.30;4.43;;;0.40;98.10;;;;;;4439709;32;20363;-74
2022/03/06 03:58:49;;;;;;;7.27;4.77;;;0.40;98.40;;;;;;4425845;32;20171;-74
2022/03/06 04:01:17;;;;;;;8.37;5.20;;;0.40;96.30;;;;;;4425742;32;20182;-75
2022/03/06 04:03:45;;;;;;;7.87;4.70;;;0.50;95.80;;;;;;4426033;32;20185;-75
2022/03/06 04:06:12;;;;;;;7.23;4.83;;;0.50;97.70;;;;;;4425271;32;20173;-74
2022/03/06 04:08:40;;;;;;;8.23;5.30;;;0.50;97.80;;;;;;4425226;32;20193;-74
2022/03/06 04:11:07;;;;;;;7.63;4.93;;;0.60;98.20;;;;;;4425697;32;20213;-75
2022/03/06 04:13:34;;;;;;;7.37;4.77;;;0.50;98.20;;;;;;4426088;32;20206;-74
2022/03/06 04:16:01;;;;;;;7.40;4.70;;;0.40;95.70;;;;;;4425978;32;20178;-74
2022/03/06 04:18:28;;;;;;;5.87;4.50;;;0.20;95.40;;;;;;4425268;32;20193;-74
2022/03/06 04:20:55;;;;;;;7.40;4.50;;;0.30;95.80;;;;;;4425406;32;20185;-75
2022/03/06 04:23:22;;;;;;;8.30;4.83;;;0.30;95.60;;;;;;4424721;32;20182;-74
2022/03/06 04:25:49;;;;;;;6.87;4.53;;;0.40;96.20;;;;;;4425569;32;20208;-74
2022/03/06 04:28:16;;;;;;;6.90;4.33;;;0.50;97.00;;;;;;4426181;32;20182;-74
2022/03/06 04:30:43;;;;;;;7.53;4.53;;;0.50;97.90;;;;;;4439332;32;20177;-74
2022/03/06 04:33:10;;;;;;;6.80;4.47;;;0.50;96.80;;;;;;4439269;32;20142;-75
2022/03/06 04:35:37;;;;;;;7.20;4.70;;;0.60;96.10;;;;;;4425413;32;20178;-75
2022/03/06 04:38:04;;;;;;;6.37;4.60;;;0.60;97.00;;;;;;4439779;32;20142;-74
2022/03/06 04:40:31;;;;;;;6.47;4.27;;;0.60;96.60;;;;;;4425512;32;20220;-75
2022/03/06 04:42:58;;;;;;;7.00;4.40;;;0.60;97.30;;;;;;4425277;32;20181;-75
2022/03/06 04:45:26;;;;;;;7.33;4.80;;;0.60;97.20;;;;;;4425715;32;20192;-75
2022/03/06 04:47:53;;;;;;;6.87;4.57;;;0.50;96.10;;;;;;4425493;32;20205;-74
2022/03/06 04:50:20;;;;;;;7.63;4.87;;;0.50;96.30;;;;;;4425818;32;20162;-74
2022/03/06 04:52:52;;;;;;;7.30;4.60;;;0.60;97.00;;;;;;4425938;32;20254;-74
2022/03/06 04:55:19;;;;;;;6.47;4.73;;;0.60;97.00;;;;;;4425243;32;20167;-75
2022/03/06 04:57:46;;;;;;;7.77;4.80;;;0.60;97.20;;;;;;4425051;32;20197;-74
2022/03/06 05:00:15;;;;;;;8.17;5.07;;;0.60;97.90;;;;;;4424871;32;20179;-74
2022/03/06 05:02:43;;;;;;;6.67;4.50;;;0.50;96.50;;;;;;4426674;32;20189;-74
2022/03/06 05:05:10;;;;;;;6.60;4.30;;;0.50;96.70;;;;;;4439431;32;20143;-74
2022/03/06 05:07:38;;;;;;;6.77;4.50;;;0.50;94.60;;;;;;4425111;32;20182;-74
2022/03/06 05:10:08;;;;;;;7.87;4.43;;;0.50;94.90;;;;;;4425209;32;20171;-74
2022/03/06 05:12:37;;;;;;;8.07;4.63;;;0.50;96.10;;;;;;4438940;32;20134;-74
2022/03/06 05:15:06;;;;;;;7.03;4.90;;;0.40;94.90;;;;;;4438815;32;20138;-74
2022/03/06 05:17:36;;;;;;;7.53;4.80;;;0.30;94.50;;;;;;4426374;32;20170;-74
2022/03/06 05:20:04;;;;;;;7.37;4.93;;;0.30;94.90;;;;;;4439857;32;20199;-74
2022/03/06 05:22:31;;;;;;;7.37;4.63;;;0.30;94.80;;;;;;4425186;32;20170;-75
2022/03/06 05:24:59;;;;;;;7.17;4.57;;;0.40;95.50;;;;;;4425366;32;20221;-74
2022/03/06 05:27:26;;;;;;;7.50;4.77;;;0.50;95.50;;;;;;4425656;32;20227;-75
2022/03/06 05:29:53;;;;;;;6.97;4.40;;;0.40;95.40;;;;;;4425570;32;20221;-74
2022/03/06 05:32:20;;;;;;;7.10;4.60;;;0.40;94.90;;;;;;4425252;32;20197;-74
2022/03/06 05:34:47;;;;;;;8.83;4.53;;;0.40;94.40;;;;;;4427754;32;20181;-75
2022/03/06 05:37:14;;;;;;;8.10;4.60;;;0.40;94.40;;;;;;4428969;32;20166;-74
2022/03/06 05:39:41;;;;;;;6.97;4.57;;;0.50;94.60;;;;;;4427739;32;20223;-74
2022/03/06 05:42:08;;;;;;;7.23;4.33;;;0.50;96.00;;;;;;4427883;32;20275;-74
2022/03/06 05:44:35;;;;;;;7.47;4.57;;;0.60;95.10;;;;;;4427426;32;20190;-74
2022/03/06 05:47:03;;;;;;;6.00;4.20;;;0.60;94.00;;;;;;4428859;32;20183;-74
2022/03/06 05:49:29;;;;;;;7.40;4.07;;;0.60;93.50;;;;;;4427174;32;20190;-74
2022/03/06 05:51:56;;;;;;;6.83;4.33;;;0.60;94.10;;;;;;4427755;32;20390;-74
2022/03/06 05:54:24;;;;;;;7.27;4.43;;;0.70;94.90;;;;;;4442332;32;20567;-74
2022/03/06 05:56:51;;;;;;;8.07;4.53;;;0.70;94.40;;;;;;4442509;32;20489;-74
2022/03/06 05:59:18;;;;;;;6.93;4.57;;;0.80;94.80;;;;;;4428817;32;20178;-74
2022/03/06 06:01:44;;;;;;;7.07;4.57;;;0.80;94.90;;;;;;4427604;32;20209;-74
2022/03/06 06:04:12;;;;;;;7.07;4.90;;;0.80;94.40;;;;;;4427010;32;20260;-75
2022/03/06 06:06:39;;;;;;;7.23;4.50;;;0.80;94.10;;;;;;4451170;32;20193;-74
2022/03/06 06:09:06;;;;;;;8.40;4.70;;;0.80;94.20;;;;;;4428499;32;20182;-74
2022/03/06 06:11:34;;;;;;;8.23;4.70;;;0.90;94.30;;;;;;4427785;32;20531;-74
2022/03/06 06:14:02;;;;;;;5.93;4.27;;;0.80;94.40;;;;;;4430290;32;20178;-73
2022/03/06 06:16:30;;;;;;;9.10;5.20;;;0.90;94.70;;;;;;4432215;32;20186;-74
2022/03/06 06:18:57;;;;;;;7.13;4.80;;;0.90;94.30;;;;;;4426758;32;20266;-74
2022/03/06 06:21:25;;;;;;;10.47;4.57;;;0.90;93.40;;;;;;4427132;32;20214;-74
2022/03/06 06:23:52;;;;;;;6.30;4.53;;;0.90;93.20;;;;;;4428098;32;20186;-74
2022/03/06 06:26:19;;;;;;;7.27;4.37;;;0.90;94.80;;;;;;4427593;32;20235;-74
2022/03/06 06:28:48;;;;;;;8.80;4.77;;;1.00;94.00;;;;;;4427482;32;20217;-74
2022/03/06 06:31:15;;;;;;;7.40;4.80;;;1.00;93.80;;;;;;4428177;32;20387;-73
2022/03/06 06:33:42;;;;;;;7.43;4.60;;;1.10;93.60;;;;;;4441340;32;20411;-73
2022/03/06 06:36:09;;;;;;;6.87;4.37;;;1.20;93.40;;;;;;4441122;32;20143;-73
2022/03/06 06:38:36;;;;;;;8.57;4.70;;;1.20;93.60;;;;;;4440974;32;20204;-73
2022/03/06 06:41:03;;;;;;;7.83;4.53;;;1.20;93.80;;;;;;4426818;32;20451;-73
2022/03/06 06:43:30;;;;;;;6.97;4.40;;;1.30;94.00;;;;;;4426228;32;20463;-73
2022/03/06 06:45:57;;;;;;;7.07;4.43;;;1.30;93.80;;;;;;4426263;32;20231;-73
2022/03/06 06:48:25;;;;;;;6.83;4.30;;;1.30;91.10;;;;;;4426595;32;20217;-73
2022/03/06 06:50:52;;;;;;;8.57;4.87;;;1.30;90.30;;;;;;4426294;32;20200;-73
2022/03/06 06:53:19;;;;;;;6.90;4.60;;;1.30;89.40;;;;;;4426018;32;20572;-74
2022/03/06 06:55:46;;;;;;;5.83;4.63;;;1.30;89.60;;;;;;4426991;32;20227;-74
2022/03/06 06:58:13;;;;;;;9.73;4.80;;;1.50;90.20;;;;;;4426608;32;20170;-74
2022/03/06 07:00:41;;;;;;;7.43;4.33;;;1.50;90.00;;;;;;4427267;32;20186;-73
2022/03/06 07:03:09;;;;;;;7.20;4.73;;;1.60;90.10;;;;;;4427374;32;20624;-73
2022/03/06 07:05:36;;;;;;;7.53;4.87;;;1.60;91.60;;;;;;4427051;32;20170;-73
2022/03/06 07:08:04;;;;;;;7.80;5.13;;;1.60;91.30;;;;;;4426595;32;20269;-74
2022/03/06 07:10:31;;;;;;;8.87;5.10;;;1.70;91.10;;;;;;4426575;32;20174;-74
2022/03/06 07:12:58;;;;;;;8.07;4.97;;;1.60;91.10;;;;;;4441094;32;20176;-73
2022/03/06 07:15:28;;;;;;;8.90;4.83;;;1.70;91.80;;;;;;4426087;32;20520;-73
2022/03/06 07:18:02;;;;;;;8.33;5.10;;;1.70;91.60;;;;;;4427132;32;20178;-74
2022/03/06 07:20:29;;;;;;;8.47;5.53;;;1.80;91.90;;;;;;4440235;32;20172;-73
2022/03/06 07:22:56;;;;;;;8.07;5.10;;;1.50;87.70;;;;;;4425716;32;20506;-73
2022/03/06 07:25:23;;;;;;;10.13;5.50;;;1.10;89.10;;;;;;4439769;32;20143;-73
2022/03/06 07:27:50;;;;;;;8.53;5.33;;;1.20;91.00;;;;;;4426085;32;20193;-73
2022/03/06 07:30:18;;;;;;;8.50;5.23;;;1.10;90.60;;;;;;4441439;32;20162;-74
2022/03/06 07:32:50;;;;;;;7.27;4.87;;;1.30;91.90;;;;;;4425546;32;20190;-74
2022/03/06 07:35:19;;;;;;;9.57;5.37;;;1.50;91.20;;;;;;4425853;32;20444;-73
2022/03/06 07:37:47;;;;;;;9.77;5.40;;;1.60;88.70;;;;;;4425666;32;20529;-74
2022/03/06 07:40:17;;;;;;;9.53;5.10;;;1.60;87.50;;;;;;4427621;32;20233;-74
2022/03/06 07:42:44;;;;;;;8.83;5.30;;;1.60;90.00;;;;;;4425511;32;20240;-74
2022/03/06 07:45:11;;;;;;;8.87;5.50;;;1.70;89.00;;;;;;4441153;32;20196;-73
2022/03/06 07:47:38;;;;;;;8.60;5.60;;;1.90;89.80;;;;;;4440179;32;20150;-74
2022/03/06 07:50:08;;;;;;;9.37;5.40;;;1.70;87.00;;;;;;4441114;32;20162;-74
2022/03/06 07:52:36;;;;;;;9.10;5.67;;;1.90;88.50;;;;;;4439508;32;20165;-73
2022/03/06 07:55:06;;;;;;;10.10;5.90;;;2.00;86.30;;;;;;4425554;32;20178;-73
2022/03/06 07:57:33;;;;;;;9.33;5.30;;;2.10;87.00;;;;;;4425256;32;20212;-73
2022/03/06 08:00:06;;;;;;;8.07;5.17;;;2.00;83.40;;;;;;4425820;32;20163;-74
2022/03/06 08:02:33;;;;;;;9.30;5.70;;;2.00;84.50;;;;;;4425505;32;20449;-73
2022/03/06 08:05:01;;;;;;;9.23;5.37;;;1.80;83.70;;;;;;4427058;32;20182;-74
2022/03/06 08:07:28;;;;;;;9.90;5.63;;;1.80;83.70;;;;;;4425358;32;20249;-73
2022/03/06 08:09:56;;;;;;;8.93;5.10;;;1.80;84.00;;;;;;4440077;32;20162;-73
2022/03/06 08:12:25;;;;;;;9.07;5.50;;;1.70;84.30;;;;;;4431650;32;20247;-73
2022/03/06 08:14:55;;;;;;;9.17;5.60;;;1.80;84.10;;;;;;4426837;32;20197;-73
2022/03/06 08:17:22;;;;;;;8.33;5.60;;;1.90;83.40;;;;;;4424997;32;20209;-74
2022/03/06 08:19:53;;;;;;;9.17;5.33;;;1.80;84.80;;;;;;4426721;32;20450;-73
2022/03/06 08:22:21;;;;;;;8.50;5.30;;;1.80;84.90;;;;;;4440241;32;20142;-74
2022/03/06 08:24:49;;;;;;;8.87;5.93;;;1.90;84.90;;;;;;4424909;32;20178;-73
2022/03/06 08:27:16;;;;;;;10.73;5.87;;;1.90;84.40;;;;;;4424827;32;20250;-73
2022/03/06 08:29:43;;;;;;;7.93;5.60;;;2.00;84.10;;;;;;4439542;32;20169;-73
2022/03/06 08:32:10;;;;;;;9.53;5.90;;;2.00;84.90;;;;;;4425201;32;20197;-73
2022/03/06 08:34:37;;;;;;;8.20;5.50;;;2.00;82.50;;;;;;4425191;32;20182;-73
2022/03/06 08:37:05;;;;;;;9.03;5.70;;;1.80;82.60;;;;;;4425761;32;20464;-73
2022/03/06 08:39:33;;;;;;;9.87;5.63;;;1.80;82.10;;;;;;4426588;32;20182;-73
2022/03/06 08:42:00;;;;;;;9.60;5.90;;;1.80;83.10;;;;;;4439461;32;20176;-73
2022/03/06 08:44:29;;;;;;;8.97;5.67;;;1.80;81.90;;;;;;4425106;32;20596;-74
2022/03/06 08:46:56;;;;;;;10.67;6.30;;;1.70;82.90;;;;;;4426352;32;20182;-74
2022/03/06 08:49:23;;;;;;;9.50;6.00;;;1.70;84.60;;;;;;4425197;32;20182;-74
2022/03/06 08:51:53;;;;;;;10.77;6.30;;;1.90;84.60;;;;;;4425338;32;20193;-74
2022/03/06 08:54:24;;;;;;;9.07;5.90;;;2.10;83.40;;;;;;4438800;32;20197;-74
2022/03/06 08:56:52;;;;;;;10.47;6.20;;;2.20;83.50;;;;;;4439547;32;20469;-74
2022/03/06 08:59:21;;;;;;;8.70;6.07;;;2.40;81.80;;;;;;4424502;32;20233;-73
2022/03/06 09:01:55;;;;;;;11.10;6.57;;;2.30;80.60;;;;;;4425214;32;20596;-73
2022/03/06 09:04:24;;;;;;;9.93;6.27;;;2.30;81.60;;;;;;4425419;32;20171;-73
2022/03/06 09:06:52;;;;;;;11.20;6.87;;;2.20;81.70;;;;;;4439046;32;20239;-72
2022/03/06 09:09:20;;;;;;;10.07;6.60;;;2.20;81.80;;;;;;4427720;32;20231;-73
2022/03/06 09:11:47;;;;;;;10.10;6.30;;;1.90;83.20;;;;;;4440981;32;20228;-74
2022/03/06 09:14:15;;;;;;;10.27;6.63;;;1.90;84.00;;;;;;4439909;32;20186;-74
2022/03/06 09:16:50;;;;;;;9.67;6.93;;;1.90;84.20;;;;;;4440386;32;20505;-73
2022/03/06 09:19:21;;;;;;;11.10;6.67;;;2.10;83.90;;;;;;4440657;32;20175;-73
2022/03/06 09:21:49;;;;;;;9.20;6.27;;;2.10;84.20;;;;;;4440911;32;20166;-73
2022/03/06 09:24:22;;;;;;;11.07;6.77;;;2.10;83.30;;;;;;4439881;32;20235;-74
2022/03/06 09:27:26;;;;;;;8.93;6.20;;;1.90;83.70;;;;;;4440499;32;20420;-73
2022/03/06 09:30:27;;;;;;;;;;;;;;;;;;;;;
2022/03/06 09:33:45;;;;;;;9.97;6.23;;;1.90;84.10;;;;;;4440337;32;20229;-72
2022/03/06 09:36:53;;;;;;;11.97;6.80;;;1.80;83.70;;;;;;4366137;32;20209;-72
2022/03/06 09:44:42;;;;;;;9.63;6.37;;;2.40;82.40;;;;;;4219124;34;20206;-69
2022/03/06 09:48:29;;;;;;;10.53;6.77;;;2.40;81.10;;;;;;4205219;34;20244;-69
2022/03/06 09:55:38;;;;;;;9.83;6.50;;;2.50;80.20;;;;;;4163550;34;20250;-69
2022/03/06 10:12:58;;;;;;;11.37;7.37;;;2.90;79.90;;;;;;4467391;32;20219;-71
2022/03/06 10:16:26;;;;;;;10.90;6.83;;;2.90;78.70;;;;;;4285755;33;20177;-70
2022/03/06 10:26:24;;;;;;;11.90;6.73;;;3.10;80.00;;;;;;4273933;33;20174;-70
2022/03/06 10:29:11;;;;;;;12.20;6.90;;;3.40;77.10;;;;;;4273944;33;20181;-70
2022/03/06 10:31:52;;;;;;;10.97;6.37;;;3.40;77.00;;;;;;4274224;33;20166;-70
2022/03/06 10:34:37;;;;;;;10.07;6.37;;;3.70;77.10;;;;;;4274589;33;20166;-70
2022/03/06 10:37:22;;;;;;;11.67;6.20;;;4.60;75.30;;;;;;4286286;33;20317;-70
2022/03/06 10:40:20;;;;;;;9.80;6.60;;;4.90;70.80;;;;;;4274568;33;20219;-70
2022/03/06 10:46:35;;;;;;;10.57;6.33;;;6.00;67.90;;;;;;4243911;33;20214;-70
2022/03/06 10:49:17;;;;;;;9.63;6.37;;;6.00;64.20;;;;;;4245694;33;20209;-69
2022/03/06 10:52:13;;;;;;;8.70;6.13;;;6.20;63.60;;;;;;4263268;33;20174;-70
2022/03/06 10:55:05;;;;;;;13.53;6.57;;;5.80;62.30;;;;;;4300783;33;20158;-70
2022/03/06 10:57:57;;;;;;;10.20;6.17;;;5.50;62.20;;;;;;4329487;33;20255;-70
2022/03/06 11:00:34;;;;;;;;;;;;;;;;;;;;;
2022/03/06 11:03:18;;;;;;;9.13;6.57;;;5.60;65.20;;;;;;4400739;32;20236;-70
2022/03/06 11:06:22;;;;;;;9.53;6.23;;;5.60;63.70;;;;;;4379524;32;20255;-70
2022/03/06 11:08:53;;;;;;;10.07;6.40;;;5.40;63.90;;;;;;4403387;32;20224;-70
2022/03/06 11:11:23;;;;;;;10.57;6.90;;;5.30;62.90;;;;;;4399618;32;20403;-70
2022/03/06 11:14:03;;;;;;;11.77;6.77;;;5.20;63.20;;;;;;4380648;32;20230;-71
2022/03/06 11:16:44;;;;;;;12.70;7.10;;;5.10;63.90;;;;;;4381578;32;20664;-70
2022/03/06 11:19:38;;;;;;;10.73;7.00;;;5.00;63.80;;;;;;4381087;32;20208;-70
2022/03/06 11:22:27;;;;;;;11.53;7.00;;;4.60;65.70;;;;;;4394381;32;20183;-70
2022/03/06 11:25:02;;;;;;;9.97;6.77;;;4.80;66.40;;;;;;4426918;32;20187;-71
2022/03/06 11:28:08;;;;;;;11.13;6.63;;;4.80;66.00;;;;;;4427271;32;20193;-71
2022/03/06 11:30:44;;;;;;;11.43;6.70;;;4.80;66.00;;;;;;4438933;32;20453;-71
2022/03/06 11:33:13;;;;;;;11.07;6.87;;;4.80;65.00;;;;;;4440608;32;20135;-70
2022/03/06 11:35:44;;;;;;;10.00;6.60;;;4.80;65.60;;;;;;4439269;32;20230;-71
2022/03/06 11:38:13;;;;;;;11.43;6.50;;;4.70;65.50;;;;;;4439767;32;20237;-71
2022/03/06 11:40:48;;;;;;;11.37;7.13;;;4.90;66.80;;;;;;4439215;32;20220;-71
2022/03/06 11:44:19;;;;;;;8.30;6.00;;;5.80;67.70;;;;;;4440895;32;20509;-71
2022/03/06 11:46:39;;;;;;;10.40;6.70;;;7.60;63.60;;;;;;4434833;32;20244;-70
2022/03/06 11:49:51;;;;;;;11.83;6.83;;;8.60;58.30;;;;;;4439438;32;20181;-70
2022/03/06 11:52:29;;;;;;;11.30;6.97;;;9.90;56.00;;;;;;4439015;32;20242;-69
2022/03/06 11:55:31;;;;;;;9.23;6.53;;;11.90;52.00;;;;;;4439483;32;20163;-70
2022/03/06 11:58:52;;;;;;;9.43;6.27;;;13.50;47.50;;;;;;4439527;32;20232;-70
2022/03/06 12:01:38;;;;;;;7.43;6.00;;;13.90;44.10;;;;;;4441645;32;20189;-70
2022/03/06 12:04:16;;;;;;;11.03;6.20;;;13.50;43.90;;;;;;4441669;32;20162;-70
2022/03/06 12:06:53;;;;;;;9.30;6.13;;;12.40;44.30;;;;;;4455808;32;20146;-70
2022/03/06 12:09:44;;;;;;;9.60;6.30;;;11.30;44.80;;;;;;4438930;32;20317;-70
2022/03/06 12:12:17;;;;;;;10.07;6.20;;;10.30;46.60;;;;;;4455065;32;20196;-69
2022/03/06 12:14:47;;;;;;;8.43;6.00;;;9.60;48.40;;;;;;4441468;32;20170;-70
2022/03/06 12:17:15;;;;;;;9.47;5.90;;;9.30;49.70;;;;;;4455939;32;20154;-69
2022/03/06 12:19:42;;;;;;;11.00;6.43;;;8.90;50.10;;;;;;4441259;32;20181;-70
2022/03/06 12:22:09;;;;;;;11.33;6.70;;;8.50;50.60;;;;;;4443023;32;20181;-70
2022/03/06 12:24:37;;;;;;;9.93;5.90;;;8.00;51.50;;;;;;4440669;32;20178;-70
2022/03/06 12:27:17;;;;;;;9.80;6.10;;;7.70;52.50;;;;;;4442758;32;20192;-71
2022/03/06 12:29:47;;;;;;;10.43;6.60;;;7.50;53.40;;;;;;4441214;32;20180;-71
2022/03/06 12:32:31;;;;;;;9.67;6.57;;;7.20;54.20;;;;;;4431461;32;20201;-71
2022/03/06 12:35:03;;;;;;;9.37;6.17;;;6.50;55.00;;;;;;4426517;32;20519;-71
2022/03/06 12:37:34;;;;;;;10.67;6.47;;;5.90;56.40;;;;;;4426804;32;20245;-70
2022/03/06 12:40:07;;;;;;;10.43;6.57;;;5.60;58.00;;;;;;4426087;32;20203;-70
2022/03/06 12:42:35;;;;;;;9.70;6.27;;;5.50;59.80;;;;;;4440061;32;20412;-70
2022/03/06 12:45:09;;;;;;;9.77;6.53;;;5.50;60.70;;;;;;4425983;32;20580;-70
2022/03/06 12:47:37;;;;;;;8.93;5.97;;;5.60;59.40;;;;;;4413579;32;20176;-70
2022/03/06 12:50:19;;;;;;;9.73;6.00;;;5.40;59.40;;;;;;4425449;32;20199;-70
2022/03/06 12:52:49;;;;;;;10.17;5.97;;;5.10;60.20;;;;;;4426666;32;20185;-70
2022/03/06 12:55:18;;;;;;;9.23;6.30;;;4.90;61.10;;;;;;4439281;32;20147;-70
2022/03/06 12:57:53;;;;;;;9.87;6.20;;;4.60;62.10;;;;;;4425519;32;20174;-69
2022/03/06 13:00:24;;;;;;;9.17;5.30;;;4.50;63.60;;;;;;4425791;32;20182;-71
2022/03/06 13:02:59;;;;;;;7.63;5.83;;;4.60;63.30;;;;;;4425538;32;20243;-70
2022/03/06 13:05:29;;;;;;;10.27;5.60;;;4.80;62.70;;;;;;4439993;32;20484;-70
2022/03/06 13:07:56;;;;;;;9.30;5.43;;;4.90;62.60;;;;;;4440927;32;20421;-70
2022/03/06 13:10:23;;;;;;;9.43;5.50;;;4.90;64.00;;;;;;4424496;32;20540;-70
2022/03/06 13:12:56;;;;;;;9.40;5.50;;;5.00;65.80;;;;;;4426132;32;20452;-70
2022/03/06 13:15:29;;;;;;;8.73;5.50;;;5.00;65.30;;;;;;4438729;32;20147;-70
2022/03/06 13:18:01;;;;;;;10.17;5.67;;;4.70;64.70;;;;;;4424079;32;20174;-70
2022/03/06 13:20:34;;;;;;;8.47;5.30;;;4.70;65.70;;;;;;4424370;32;20425;-70
2022/03/06 13:23:01;;;;;;;7.93;4.53;;;4.70;65.20;;;;;;4425364;32;20225;-72
2022/03/06 13:25:30;;;;;;;8.27;4.73;;;4.70;64.60;;;;;;4439037;32;20208;-72
2022/03/06 13:27:57;;;;;;;6.97;4.90;;;4.50;64.50;;;;;;4440807;32;20177;-73
2022/03/06 13:30:32;;;;;;;6.60;4.67;;;4.70;64.80;;;;;;4440330;32;20174;-73
2022/03/06 13:33:00;;;;;;;8.20;4.90;;;5.20;64.10;;;;;;4438607;32;20400;-72
2022/03/06 13:35:36;;;;;;;8.27;4.77;;;5.20;61.70;;;;;;4437082;32;20199;-72
2022/03/06 13:38:05;;;;;;;7.73;4.80;;;6.10;62.50;;;;;;4437560;32;20183;-73
2022/03/06 13:40:39;;;;;;;8.00;4.80;;;7.00;60.80;;;;;;4424281;32;20207;-72
2022/03/06 13:43:06;;;;;;;9.13;5.30;;;7.00;57.50;;;;;;4438676;32;20143;-73
2022/03/06 13:45:33;;;;;;;8.83;4.87;;;6.90;57.50;;;;;;4438592;32;20209;-72
2022/03/06 13:48:03;;;;;;;6.70;4.60;;;6.50;58.40;;;;;;4439015;32;20205;-73
2022/03/06 13:50:37;;;;;;;7.67;4.87;;;6.30;58.50;;;;;;4438903;32;20224;-72
2022/03/06 13:53:06;;;;;;;6.97;4.60;;;6.10;58.70;;;;;;4439243;32;20166;-72
2022/03/06 13:55:36;;;;;;;7.80;5.00;;;5.20;60.90;;;;;;4438870;32;20227;-71